createdAt,value
2023-02-04T00:00:54.840Z,103239.09
2023-02-04T00:04:56.609Z,103234.56
2023-02-04T00:08:58.429Z,103233.53
2023-02-04T00:13:00.565Z,103230.81
2023-02-04T00:17:02.533Z,103232.59
2023-02-04T00:21:04.434Z,103229.09
2023-02-04T00:25:06.963Z,103238.84
2023-02-04T00:29:08.678Z,103243.31
2023-02-04T00:33:10.528Z,103241.69
2023-02-04T00:37:12.296Z,103250.53
2023-02-04T00:41:14.094Z,103246.91
2023-02-04T00:45:16.013Z,103243.50
2023-02-04T00:49:17.803Z,103252.41
2023-02-04T00:53:19.517Z,103252.56
2023-02-04T00:57:21.302Z,103255.22
2023-02-04T01:01:23.166Z,103253.50
2023-02-04T01:05:24.956Z,103250.69
2023-02-04T01:09:26.797Z,103249.13
2023-02-04T01:13:28.555Z,103263.53
2023-02-04T01:17:30.280Z,103266.25
2023-02-04T01:21:32.240Z,103268.84
2023-02-04T01:25:34.053Z,103271.56
2023-02-04T01:29:35.775Z,103271.56
2023-02-04T01:33:37.562Z,103281.50
2023-02-04T01:37:39.308Z,103284.25
2023-02-04T01:41:41.143Z,103295.91
2023-02-04T01:45:43.420Z,103295.91
2023-02-04T01:49:47.075Z,103292.38
2023-02-04T01:53:50.411Z,103295.03
2023-02-04T01:57:58.931Z,103304.81
2023-02-04T02:02:01.129Z,103307.56
2023-02-04T02:06:03.012Z,103309.38
2023-02-04T02:10:07.281Z,103320.91
2023-02-04T02:14:11.535Z,103314.91
2023-02-04T02:18:13.799Z,103318.34
2023-02-04T02:22:26.167Z,103320.00
2023-02-04T02:26:28.034Z,103324.53
2023-02-04T02:30:30.631Z,103315.75
2023-02-04T02:34:34.661Z,103328.13
2023-02-04T02:38:37.910Z,103338.59
2023-02-04T02:42:40.730Z,103336.69
2023-02-04T02:46:42.474Z,103342.00
2023-02-04T02:50:45.025Z,103326.06
2023-02-04T02:54:47.457Z,103334.19
2023-02-04T02:58:50.775Z,103336.09
2023-02-04T03:03:07.739Z,103330.00
2023-02-04T03:07:13.045Z,103342.31
2023-02-04T03:11:14.999Z,103341.31
2023-02-04T03:15:17.405Z,103336.84
2023-02-04T03:19:21.106Z,103338.59
2023-02-04T03:23:25.252Z,103337.72
2023-02-04T03:27:27.238Z,103350.13
2023-02-04T03:31:29.112Z,103335.16
2023-02-04T03:35:30.937Z,103346.63
2023-02-04T03:39:32.728Z,103352.81
2023-02-04T03:43:34.689Z,103340.63
2023-02-04T03:47:36.598Z,103338.91
2023-02-04T03:51:38.360Z,103345.16
2023-02-04T03:55:41.041Z,103338.91
2023-02-04T03:59:42.770Z,103345.94
2023-02-04T04:03:44.519Z,103347.63
2023-02-04T04:07:46.218Z,103343.28
2023-02-04T04:11:48.016Z,103351.09
2023-02-04T04:15:49.761Z,103355.41
2023-02-04T04:19:51.521Z,103351.88
2023-02-04T04:23:53.344Z,103353.50
2023-02-04T04:27:55.131Z,103354.34
2023-02-04T04:31:56.870Z,103353.44
2023-02-04T04:35:58.651Z,103361.41
2023-02-04T04:40:01.546Z,103368.59
2023-02-04T04:44:03.740Z,103377.50
2023-02-04T04:48:05.539Z,103372.03
2023-02-04T04:52:07.217Z,103374.59
2023-02-04T04:56:09.110Z,103383.38
2023-02-04T05:00:15.344Z,103385.94
2023-02-04T05:04:17.072Z,103385.94
2023-02-04T05:08:20.702Z,103384.06
2023-02-04T05:12:22.441Z,103380.47
2023-02-04T05:16:24.208Z,103374.19
2023-02-04T05:20:26.069Z,103382.19
2023-02-04T05:24:28.718Z,103390.06
2023-02-04T05:28:30.468Z,103391.81
2023-02-04T05:32:32.461Z,103402.28
2023-02-04T05:36:34.186Z,103403.13
2023-02-04T05:40:36.124Z,103404.00
2023-02-04T05:44:37.838Z,103420.78
2023-02-04T05:48:40.419Z,103416.25
2023-02-04T05:52:42.247Z,103411.81
2023-02-04T05:56:43.967Z,103412.66
2023-02-04T06:00:45.823Z,103421.50
2023-02-04T06:04:47.506Z,103421.66
2023-02-04T06:08:49.232Z,103427.06
2023-02-04T06:12:51.004Z,103435.94
2023-02-04T06:16:52.807Z,103442.19
2023-02-04T06:20:54.546Z,103452.84
2023-02-04T06:24:56.430Z,103454.53
2023-02-04T06:28:58.252Z,103460.75
2023-02-04T06:33:00.036Z,103459.00
2023-02-04T06:37:01.728Z,103454.53
2023-02-04T06:41:06.345Z,103458.84
2023-02-04T06:45:08.428Z,103461.44
2023-02-04T06:49:10.177Z,103471.13
2023-02-04T06:53:11.933Z,103456.91
2023-02-04T06:57:13.649Z,103471.13
2023-02-04T07:01:15.412Z,103472.94
2023-02-04T07:05:17.178Z,103473.78
2023-02-04T07:09:18.965Z,103465.81
2023-02-04T07:13:20.818Z,103471.91
2023-02-04T07:17:23.915Z,103476.22
2023-02-04T07:21:25.653Z,103479.72
2023-02-04T07:25:27.469Z,103482.38
2023-02-04T07:29:29.219Z,103479.81
2023-02-04T15:46:40.174Z,103646.84
2023-02-04T15:50:41.913Z,103636.72
2023-02-04T15:54:43.670Z,103651.34
2023-02-04T15:58:45.437Z,103651.03
2023-02-04T16:02:47.278Z,103652.47
2023-02-04T16:06:58.153Z,103644.31
2023-02-04T16:11:00.358Z,103650.31
2023-02-04T16:15:03.606Z,103649.31
2023-02-04T16:19:05.282Z,103651.00
2023-02-04T16:23:08.232Z,103658.16
2023-02-04T16:27:09.996Z,103667.88
2023-02-04T16:31:11.933Z,103661.84
2023-02-04T16:35:14.547Z,103678.84
2023-02-04T16:39:16.317Z,103677.16
2023-02-04T16:43:18.146Z,103668.41
2023-02-04T16:47:19.966Z,103668.56
2023-02-04T16:51:21.769Z,103674.06
2023-02-04T16:55:25.750Z,103674.22
2023-02-04T16:59:28.677Z,103685.94
2023-02-04T17:03:30.477Z,103678.94
2023-02-04T17:07:34.488Z,103683.50
2023-02-04T17:11:37.392Z,103680.06
2023-02-04T17:15:39.205Z,103681.09
2023-02-04T17:19:40.997Z,103681.19
2023-02-04T17:23:44.181Z,103683.84
2023-02-04T17:27:46.035Z,103687.44
2023-02-04T17:31:47.872Z,103692.75
2023-02-04T17:35:49.684Z,103694.56
2023-02-04T17:39:51.426Z,103715.97
2023-02-04T17:43:53.216Z,103711.59
2023-02-04T17:47:54.943Z,103701.88
2023-02-04T17:51:56.643Z,103712.63
2023-02-04T17:55:58.527Z,103702.03
2023-02-04T18:00:01.001Z,103687.94
2023-02-04T18:04:04.032Z,103700.47
2023-02-04T18:08:20.720Z,103707.59
2023-02-04T18:12:22.581Z,103708.56
2023-02-04T18:16:27.472Z,103689.81
2023-02-04T18:20:29.556Z,103700.56
2023-02-04T18:24:37.339Z,103692.72
2023-02-04T18:28:43.642Z,103693.59
2023-02-04T18:32:45.597Z,103699.00
2023-02-04T18:36:48.421Z,103699.06
2023-02-04T18:41:01.438Z,103703.63
2023-02-04T18:45:20.280Z,103708.16
2023-02-04T18:49:28.300Z,103716.25
2023-02-04T18:53:30.180Z,103722.34
2023-02-04T18:57:38.648Z,103724.16
2023-02-04T19:01:40.436Z,103701.13
2023-02-04T19:05:49.673Z,103707.41
2023-02-04T19:09:51.569Z,103719.94
2023-02-04T19:13:57.067Z,103720.94
2023-02-04T19:18:07.453Z,103717.47
2023-02-04T19:22:24.393Z,103707.78
2023-02-04T19:26:32.512Z,103709.50
2023-02-04T19:30:44.390Z,103705.03
2023-02-04T19:34:46.226Z,103705.97
2023-02-04T19:38:48.570Z,103701.75
2023-02-04T19:42:53.954Z,103710.84
2023-02-04T19:46:57.453Z,103702.06
2023-02-04T19:51:01.951Z,103697.69
2023-02-04T19:55:21.406Z,103694.22
2023-02-04T19:59:27.785Z,103695.28
2023-02-04T20:03:46.480Z,103702.56
2023-02-04T20:07:48.130Z,103702.72
2023-02-04T20:11:58.614Z,103706.47
2023-02-04T20:16:20.499Z,103711.94
2023-02-04T20:20:29.496Z,103715.56
2023-02-04T20:24:37.038Z,103711.25
2023-02-04T20:28:42.041Z,103712.91
2023-02-04T20:32:46.458Z,103711.16
2023-02-04T20:36:48.803Z,103713.03
2023-02-04T20:40:50.504Z,103715.72
2023-02-04T20:44:52.678Z,103705.22
2023-02-04T20:48:54.462Z,103699.03
2023-02-04T20:53:06.458Z,103692.00
2023-02-04T20:57:18.134Z,103683.16
2023-02-04T21:01:38.425Z,103694.72
2023-02-04T21:05:40.537Z,103682.50
2023-02-04T21:09:42.416Z,103681.78
2023-02-04T21:13:44.639Z,103687.97
2023-02-04T21:17:46.376Z,103688.16
2023-02-04T21:21:48.188Z,103681.25
2023-02-04T21:25:50.023Z,103686.75
2023-02-04T21:29:51.776Z,103689.47
2023-02-04T21:33:53.745Z,103701.91
2023-02-04T21:37:59.122Z,103707.16
2023-02-04T21:42:13.527Z,103704.56
2023-02-04T21:46:15.726Z,103713.50
2023-02-04T21:50:18.982Z,103709.09
2023-02-04T21:54:20.721Z,103693.13
2023-02-04T21:58:22.713Z,103703.78
2023-02-04T22:02:25.613Z,103711.75
2023-02-04T22:06:27.349Z,103709.03
2023-02-04T22:10:29.627Z,103721.47
2023-02-04T22:14:31.367Z,103717.03
2023-02-04T22:18:33.081Z,103719.59
2023-02-04T22:22:34.966Z,103723.09
2023-02-04T22:26:36.660Z,103711.59
2023-02-04T22:30:38.661Z,103711.47
2023-02-04T22:34:40.547Z,103723.81
2023-02-04T22:38:42.334Z,103714.06
2023-02-04T22:42:44.071Z,103711.31
2023-02-04T22:46:47.483Z,103695.50
2023-02-04T22:50:49.475Z,103697.38
2023-02-04T22:54:52.248Z,103686.91
2023-02-04T22:58:54.297Z,103692.22
2023-02-04T23:02:56.042Z,103691.34
2023-02-04T23:06:58.007Z,103691.34
2023-02-04T23:10:59.814Z,103676.25
2023-02-04T23:15:01.744Z,103668.31
2023-02-04T23:19:04.182Z,103668.41
2023-02-04T23:23:06.501Z,103670.28
2023-02-04T23:27:11.126Z,103665.91
2023-02-04T23:31:13.005Z,103662.28
2023-02-04T23:35:14.731Z,103662.28
2023-02-04T23:39:16.519Z,103649.94
2023-02-04T23:43:18.326Z,103634.94
2023-02-04T23:47:20.089Z,103632.16
2023-02-04T23:51:21.822Z,103641.09
2023-02-04T23:55:23.608Z,103643.66
2023-02-04T23:59:25.543Z,103622.47
